createdAt,value
2022-08-05T00:01:28.576Z,22.50
2022-08-05T00:06:33.372Z,22.40
2022-08-05T00:11:49.191Z,22.40
2022-08-05T00:16:57.883Z,22.40
2022-08-05T00:22:00.610Z,22.40
2022-08-05T00:27:10.305Z,22.20
2022-08-05T00:32:16.477Z,22.10
2022-08-05T00:37:20.216Z,21.90
2022-08-05T00:42:32.876Z,21.80
2022-08-05T00:47:57.266Z,21.60
2022-08-05T00:52:57.984Z,21.40
2022-08-05T00:58:01.875Z,21.40
2022-08-05T01:03:08.144Z,21.50
2022-08-05T01:08:40.661Z,21.70
2022-08-05T01:13:57.465Z,21.80
2022-08-05T01:19:30.421Z,21.90
2022-08-05T01:25:03.233Z,21.90
2022-08-05T01:30:17.813Z,21.90
2022-08-05T01:35:51.176Z,21.80
2022-08-05T01:40:55.564Z,21.60
2022-08-05T01:46:06.989Z,21.50
2022-08-05T01:51:20.200Z,21.30
2022-08-05T01:58:11.541Z,21.20
2022-08-05T02:01:51.816Z,21.10
2022-08-05T02:06:59.048Z,21.10
2022-08-05T02:12:06.691Z,21.00
2022-08-05T02:18:27.608Z,21.10
2022-08-05T02:22:59.740Z,21.20
2022-08-05T02:28:08.689Z,21.20
2022-08-05T02:33:24.653Z,21.30
2022-08-05T02:38:39.278Z,21.40
2022-08-05T02:44:02.290Z,21.40
2022-08-05T02:49:11.118Z,21.40
2022-08-05T02:54:36.394Z,21.40
2022-08-05T02:59:47.831Z,21.40
2022-08-05T03:04:57.497Z,21.40
2022-08-05T03:09:59.943Z,21.40
2022-08-05T03:15:06.976Z,21.40
2022-08-05T03:20:13.831Z,21.40
2022-08-05T03:30:40.988Z,21.40
2022-08-05T03:35:47.754Z,21.40
2022-08-05T03:40:50.818Z,21.30
2022-08-05T03:45:55.318Z,21.30
2022-08-05T03:52:50.493Z,21.40
2022-08-05T03:56:41.328Z,21.30
2022-08-05T04:01:49.244Z,21.30
2022-08-05T04:06:54.593Z,21.30
2022-08-05T04:11:59.562Z,21.30
2022-08-05T04:17:03.239Z,21.30
2022-08-05T04:22:11.991Z,21.30
2022-08-05T04:27:15.489Z,21.30
2022-08-05T04:32:20.124Z,21.30
2022-08-05T04:38:01.278Z,21.30
2022-08-05T04:42:57.829Z,21.30
2022-08-05T04:48:07.637Z,21.30
2022-08-05T04:53:20.498Z,21.30
2022-08-05T04:58:24.254Z,21.20
2022-08-05T05:03:26.835Z,21.20
2022-08-05T05:08:50.178Z,21.20
2022-08-05T05:13:52.654Z,21.20
2022-08-05T05:19:18.598Z,21.20
2022-08-05T05:24:21.693Z,21.20
2022-08-05T05:29:24.069Z,21.20
2022-08-05T05:34:46.492Z,21.30
2022-08-05T05:39:50.443Z,21.40
2022-08-05T05:44:52.922Z,21.40
2022-08-05T05:50:02.249Z,21.40
2022-08-05T05:55:13.534Z,21.40
2022-08-05T06:00:18.323Z,21.40
2022-08-05T06:05:20.931Z,21.50
2022-08-05T06:10:25.069Z,21.60
2022-08-05T06:16:27.574Z,21.70
2022-08-05T06:20:54.452Z,21.90
2022-08-05T06:26:13.765Z,22.00
2022-08-05T06:31:22.028Z,22.10
2022-08-05T06:36:26.024Z,22.20
2022-08-05T06:41:30.193Z,22.20
2022-08-05T06:46:37.477Z,22.40
2022-08-05T06:51:40.864Z,22.40
2022-08-05T06:56:54.768Z,22.50
2022-08-05T07:02:08.220Z,22.50
2022-08-05T07:07:11.232Z,22.60
2022-08-05T07:12:19.165Z,22.60
2022-08-05T07:17:59.948Z,22.70
2022-08-05T07:22:44.252Z,22.90
2022-08-05T07:27:57.063Z,23.00
2022-08-05T07:33:05.176Z,23.40
2022-08-05T07:38:12.403Z,24.20
2022-08-05T07:43:20.751Z,24.80
2022-08-05T07:49:02.903Z,25.30
2022-08-05T07:53:49.842Z,25.60
2022-08-05T07:58:58.787Z,25.80
2022-08-05T08:04:01.825Z,26.10
2022-08-05T08:09:04.749Z,26.40
2022-08-05T08:14:09.491Z,27.00
2022-08-05T08:20:10.719Z,27.60
2022-08-05T08:24:51.405Z,27.90
2022-08-05T08:30:05.157Z,28.00
2022-08-05T08:35:18.352Z,27.80
2022-08-05T08:40:21.952Z,27.50
2022-08-05T08:45:30.423Z,27.20
2022-08-05T08:51:23.210Z,26.90
2022-08-05T09:02:17.997Z,26.50
2022-08-05T09:07:29.129Z,26.40
2022-08-05T09:12:42.059Z,26.40
2022-08-05T09:17:49.651Z,26.60
2022-08-05T09:23:09.174Z,27.20
2022-08-05T09:28:15.010Z,28.10
2022-08-05T09:33:34.980Z,29.30
2022-08-05T09:38:38.049Z,30.00
2022-08-05T09:43:42.324Z,30.10
2022-08-05T09:48:55.307Z,29.80
2022-08-05T09:54:09.287Z,29.40
2022-08-05T09:59:17.045Z,29.10
2022-08-05T10:04:34.971Z,28.70
2022-08-05T10:09:44.899Z,28.20
2022-08-05T10:14:47.915Z,27.80
2022-08-05T10:20:04.563Z,27.40
2022-08-05T10:25:14.468Z,27.10
2022-08-05T10:32:46.896Z,26.80
2022-08-05T10:35:44.110Z,26.50
2022-08-05T10:40:58.076Z,26.20
2022-08-05T10:46:06.706Z,25.90
2022-08-05T10:51:22.074Z,25.60
2022-08-05T10:56:27.547Z,25.30
2022-08-05T11:01:55.662Z,25.10
2022-08-05T11:07:07.557Z,25.00
2022-08-05T11:12:45.333Z,25.20
2022-08-05T11:17:59.813Z,25.50
2022-08-05T11:24:04.857Z,25.90
2022-08-05T11:28:55.994Z,26.40
2022-08-05T11:34:02.171Z,26.80
2022-08-05T11:39:08.907Z,27.10
2022-08-05T11:44:12.799Z,27.60
2022-08-05T11:49:35.363Z,28.20
2022-08-05T11:54:40.731Z,28.70
2022-08-05T11:59:50.226Z,28.90
2022-08-05T12:04:59.167Z,29.30
2022-08-05T12:10:11.459Z,29.50
2022-08-05T12:15:20.343Z,29.70
2022-08-05T12:20:40.733Z,29.60
2022-08-05T12:25:53.571Z,29.40
2022-08-05T12:31:01.959Z,29.20
2022-08-05T12:36:08.412Z,29.10
2022-08-05T12:41:14.775Z,29.10
2022-08-05T12:46:29.552Z,29.20
2022-08-05T12:52:14.033Z,29.20
2022-08-05T12:57:09.283Z,29.20
2022-08-05T13:02:15.953Z,29.20
2022-08-05T13:07:55.855Z,29.10
2022-08-05T13:12:51.130Z,28.90
2022-08-05T13:18:00.215Z,28.70
2022-08-05T13:23:07.362Z,28.50
2022-08-05T13:28:11.495Z,28.40
2022-08-05T13:34:23.462Z,28.30
2022-08-05T13:38:42.804Z,28.20
2022-08-05T13:43:55.006Z,28.10
2022-08-05T13:49:00.495Z,28.00
2022-08-05T13:54:12.509Z,27.90
2022-08-05T13:59:19.999Z,27.60
2022-08-05T14:04:26.747Z,27.40
2022-08-05T14:09:29.819Z,27.20
2022-08-05T14:14:33.966Z,27.10
2022-08-05T14:19:55.374Z,27.00
2022-08-05T14:24:58.802Z,26.80
2022-08-05T14:30:04.210Z,26.80
2022-08-05T14:35:10.741Z,26.80
2022-08-05T14:40:16.883Z,26.80
2022-08-05T14:45:21.219Z,26.80
2022-08-05T14:50:25.277Z,26.70
2022-08-05T14:55:39.394Z,26.50
2022-08-05T15:00:58.774Z,26.20
2022-08-05T15:06:07.402Z,25.90
2022-08-05T15:11:16.062Z,25.80
2022-08-05T15:16:20.194Z,25.60
2022-08-05T15:21:24.741Z,25.50
2022-08-05T15:26:33.163Z,25.40
2022-08-05T15:31:38.422Z,25.40
2022-08-05T15:36:42.326Z,25.30
2022-08-05T15:41:55.655Z,25.20
2022-08-05T15:47:02.076Z,25.00
2022-08-05T15:52:16.230Z,24.90
2022-08-05T15:57:20.161Z,24.80
2022-08-05T16:02:25.616Z,24.80
2022-08-05T16:07:30.487Z,24.70
2022-08-05T16:12:33.160Z,24.70
2022-08-05T16:17:37.050Z,24.80
2022-08-05T16:22:39.548Z,24.70
2022-08-05T16:28:00.237Z,24.60
2022-08-05T16:33:08.309Z,24.50
2022-08-05T16:38:21.879Z,24.40
2022-08-05T16:43:29.330Z,24.30
2022-08-05T16:48:35.603Z,24.20
2022-08-05T16:54:04.772Z,24.00
2022-08-05T16:59:08.505Z,23.90
2022-08-05T17:04:12.848Z,23.80
2022-08-05T17:09:17.695Z,23.70
2022-08-05T17:14:22.304Z,23.70
2022-08-05T17:19:38.661Z,23.60
2022-08-05T17:24:45.421Z,23.40
2022-08-05T17:30:00.615Z,23.30
2022-08-05T17:35:08.061Z,23.00
2022-08-05T17:40:17.347Z,22.90
2022-08-05T17:45:21.810Z,22.90
2022-08-05T17:50:30.500Z,22.90
2022-08-05T17:55:39.524Z,22.90
2022-08-05T18:00:47.420Z,22.80
2022-08-05T18:05:53.715Z,22.70
2022-08-05T18:10:58.681Z,22.60
2022-08-05T18:16:01.142Z,22.50
2022-08-05T18:21:13.276Z,22.50
2022-08-05T18:26:29.008Z,22.50
2022-08-05T18:31:33.740Z,22.50
2022-08-05T18:36:39.280Z,22.30
2022-08-05T18:41:55.147Z,22.20
2022-08-05T18:47:05.058Z,22.10
2022-08-05T18:52:11.550Z,21.90
2022-08-05T18:57:17.173Z,21.70
2022-08-05T19:02:27.708Z,21.50
2022-08-05T19:07:46.713Z,21.30
2022-08-05T19:12:49.642Z,21.20
2022-08-05T19:18:08.771Z,21.00
2022-08-05T19:24:05.771Z,20.90
2022-08-05T19:28:38.643Z,20.80
2022-08-05T19:33:48.261Z,20.60
2022-08-05T19:39:01.938Z,20.50
2022-08-05T19:44:13.671Z,20.40
2022-08-05T19:49:17.651Z,20.20
2022-08-05T19:54:29.375Z,20.20
2022-08-05T19:59:55.889Z,20.10
2022-08-05T20:04:58.479Z,20.00
2022-08-05T20:10:11.804Z,20.00
2022-08-05T20:15:23.342Z,20.00
2022-08-05T20:20:44.127Z,19.90
2022-08-05T20:25:48.843Z,19.80
2022-08-05T20:30:54.306Z,19.80
2022-08-05T20:35:56.851Z,19.60
2022-08-05T20:41:04.662Z,19.50
2022-08-05T20:46:11.013Z,19.30
2022-08-05T20:51:20.975Z,19.30
2022-08-05T20:56:28.208Z,19.20
2022-08-05T21:01:38.046Z,19.10
2022-08-05T21:06:45.393Z,19.00
2022-08-05T21:12:06.951Z,19.00
2022-08-05T21:17:13.488Z,18.80
2022-08-05T21:22:21.908Z,18.70
2022-08-05T21:27:27.948Z,18.60
2022-08-05T21:32:41.411Z,18.50
2022-08-05T21:37:52.976Z,18.40
2022-08-05T21:42:59.192Z,18.30
2022-08-05T21:48:02.608Z,18.20
2022-08-05T21:53:17.567Z,18.10
2022-08-05T21:58:24.946Z,18.00
2022-08-05T22:03:48.430Z,17.90
2022-08-05T22:08:55.789Z,17.90
2022-08-05T22:14:19.957Z,17.80
2022-08-05T22:20:01.003Z,17.70
2022-08-05T22:24:52.431Z,17.60
2022-08-05T22:29:57.569Z,17.50
2022-08-05T22:35:00.456Z,17.50
2022-08-05T22:40:03.149Z,17.40
2022-08-05T22:45:11.317Z,17.40
2022-08-05T22:50:19.962Z,17.40
2022-08-05T22:55:24.804Z,17.40
2022-08-05T23:00:30.317Z,17.40
2022-08-05T23:05:36.176Z,17.30
2022-08-05T23:10:39.277Z,17.30
2022-08-05T23:15:43.296Z,17.30
2022-08-05T23:20:53.202Z,17.30
2022-08-05T23:25:56.232Z,17.20
2022-08-05T23:31:07.066Z,17.10
2022-08-05T23:36:19.450Z,17.00
2022-08-05T23:41:22.257Z,16.90
2022-08-05T23:46:27.848Z,16.80
2022-08-05T23:51:33.076Z,16.70
2022-08-05T23:56:37.108Z,16.60
